createdAt,value
2019-03-19T00:00:15.984Z,9.00
2019-03-19T00:02:44.761Z,8.90
2019-03-19T00:05:13.470Z,8.95
2019-03-19T00:07:42.044Z,7.95
2019-03-19T00:10:11.362Z,9.10
2019-03-19T00:12:39.930Z,8.90
2019-03-19T00:15:12.462Z,8.40
2019-03-19T00:17:41.555Z,8.80
2019-03-19T00:20:12.682Z,8.93
2019-03-19T00:22:41.316Z,8.65
2019-03-19T00:25:09.991Z,8.35
2019-03-19T00:27:39.001Z,7.97
2019-03-19T00:30:15.576Z,8.10
2019-03-19T00:32:44.245Z,9.15
2019-03-19T00:35:14.858Z,7.75
2019-03-19T00:37:43.422Z,8.68
2019-03-19T00:40:14.134Z,8.30
2019-03-19T00:42:42.773Z,8.25
2019-03-19T00:45:13.277Z,7.83
2019-03-19T00:47:42.084Z,8.40
2019-03-19T00:50:12.865Z,8.95
2019-03-19T00:52:41.435Z,8.53
2019-03-19T00:55:10.855Z,7.67
2019-03-19T00:57:39.530Z,7.95
2019-03-19T01:00:11.442Z,8.33
2019-03-19T01:02:40.008Z,8.55
2019-03-19T01:05:09.417Z,8.00
2019-03-19T01:07:38.056Z,8.75
2019-03-19T01:10:09.842Z,8.73
2019-03-19T01:12:38.446Z,8.25
2019-03-19T01:15:09.871Z,8.63
2019-03-19T01:17:38.448Z,7.67
2019-03-19T01:20:12.025Z,8.20
2019-03-19T01:22:40.644Z,8.58
2019-03-19T01:25:11.607Z,8.48
2019-03-19T01:27:45.171Z,8.00
2019-03-19T01:30:16.762Z,7.92
2019-03-19T01:32:45.396Z,7.70
2019-03-19T01:35:13.970Z,8.20
2019-03-19T01:37:42.532Z,8.35
2019-03-19T01:40:12.302Z,7.95
2019-03-19T01:42:40.869Z,7.80
2019-03-19T01:45:10.779Z,8.40
2019-03-19T01:47:39.464Z,8.65
2019-03-19T01:50:16.184Z,8.40
2019-03-19T01:52:44.838Z,8.53
2019-03-19T01:55:14.445Z,8.85
2019-03-19T01:57:43.064Z,8.13
2019-03-19T02:00:13.587Z,8.55
2019-03-19T02:02:42.214Z,8.50
2019-03-19T02:05:10.923Z,8.85
2019-03-19T02:07:39.557Z,7.70
2019-03-19T02:10:12.843Z,8.30
2019-03-19T02:12:41.658Z,7.80
2019-03-19T02:15:14.919Z,8.03
2019-03-19T02:17:44.297Z,7.37
2019-03-19T02:20:14.176Z,7.33
2019-03-19T02:22:42.828Z,8.13
2019-03-19T02:25:11.839Z,7.85
2019-03-19T02:27:41.354Z,7.33
2019-03-19T02:30:16.592Z,7.95
2019-03-19T02:32:45.220Z,7.80
2019-03-19T02:35:13.931Z,7.70
2019-03-19T02:37:43.543Z,7.75
2019-03-19T02:40:14.401Z,7.70
2019-03-19T02:42:43.021Z,7.55
2019-03-19T02:45:12.838Z,6.85
2019-03-19T02:47:41.414Z,7.50
2019-03-19T02:50:14.916Z,7.70
2019-03-19T02:52:43.894Z,7.10
2019-03-19T02:55:12.604Z,7.15
2019-03-19T02:57:41.211Z,6.83
2019-03-19T03:00:19.709Z,6.55
2019-03-19T03:02:48.292Z,7.12
2019-03-19T03:05:18.782Z,6.83
2019-03-19T03:07:47.499Z,7.08
2019-03-19T03:10:16.650Z,7.50
2019-03-19T03:12:45.385Z,6.92
2019-03-19T03:15:14.688Z,6.87
2019-03-19T03:17:43.435Z,8.15
2019-03-19T03:20:15.939Z,6.95
2019-03-19T03:25:13.793Z,7.75
2019-03-19T03:27:42.436Z,7.37
2019-03-19T03:30:22.011Z,7.28
2019-03-19T03:32:50.627Z,7.25
2019-03-19T03:35:19.238Z,7.33
2019-03-19T03:37:48.276Z,6.42
2019-03-19T03:40:17.796Z,7.55
2019-03-19T03:42:46.505Z,7.55
2019-03-19T03:45:19.106Z,7.12
2019-03-19T03:47:48.027Z,7.00
2019-03-19T03:50:17.440Z,7.12
2019-03-19T03:52:46.081Z,7.25
2019-03-19T03:55:16.766Z,6.28
2019-03-19T03:57:45.397Z,7.55
2019-03-19T04:00:23.708Z,6.75
2019-03-19T04:02:52.279Z,6.78
2019-03-19T04:05:21.041Z,6.53
2019-03-19T04:07:49.601Z,7.17
2019-03-19T04:10:18.912Z,7.12
2019-03-19T04:12:47.730Z,6.97
2019-03-19T04:15:17.359Z,7.47
2019-03-19T04:17:47.013Z,7.55
2019-03-19T04:20:16.730Z,7.12
2019-03-19T04:22:45.439Z,8.23
2019-03-19T04:25:15.617Z,7.20
2019-03-19T04:27:44.264Z,6.50
2019-03-19T04:30:17.830Z,6.67
2019-03-19T04:32:46.538Z,6.97
2019-03-19T04:35:15.272Z,5.85
2019-03-19T04:37:43.970Z,7.30
2019-03-19T04:40:13.769Z,6.67
2019-03-19T04:42:42.596Z,6.22
2019-03-19T04:45:13.277Z,6.45
2019-03-19T04:47:41.871Z,7.08
2019-03-19T04:50:17.696Z,6.50
2019-03-19T04:52:48.180Z,6.80
2019-03-19T04:55:17.306Z,6.65
2019-03-19T04:57:45.883Z,6.37
2019-03-19T05:00:16.610Z,6.10
2019-03-19T05:02:45.204Z,6.22
2019-03-19T05:05:14.687Z,6.25
2019-03-19T05:07:43.347Z,6.75
2019-03-19T05:10:16.822Z,5.85
2019-03-19T05:12:45.458Z,6.20
2019-03-19T05:15:14.225Z,6.28
2019-03-19T05:17:42.796Z,6.83
2019-03-19T05:20:17.927Z,5.47
2019-03-19T05:22:46.571Z,5.53
2019-03-19T05:25:15.225Z,6.53
2019-03-19T05:27:44.797Z,5.97
2019-03-19T05:30:15.687Z,5.78
2019-03-19T05:32:44.520Z,6.55
2019-03-19T05:35:13.205Z,6.53
2019-03-19T05:37:42.736Z,5.80
2019-03-19T05:40:13.413Z,6.25
2019-03-19T05:42:42.033Z,6.80
2019-03-19T05:45:12.142Z,5.72
2019-03-19T05:47:41.013Z,7.03
2019-03-19T05:50:12.399Z,7.17
2019-03-19T05:52:41.029Z,6.28
2019-03-19T05:55:10.437Z,6.60
2019-03-19T05:57:48.974Z,7.33
2019-03-19T06:00:26.701Z,8.15
2019-03-19T06:02:55.266Z,6.95
2019-03-19T06:05:23.831Z,8.33
2019-03-19T06:07:52.413Z,7.28
2019-03-19T06:10:21.072Z,6.97
2019-03-19T06:12:49.687Z,7.05
2019-03-19T06:15:18.387Z,5.92
2019-03-19T06:17:46.961Z,6.42
2019-03-19T06:20:17.762Z,6.25
2019-03-19T06:22:46.415Z,6.40
2019-03-19T06:25:15.122Z,6.85
2019-03-19T06:27:43.792Z,5.62
2019-03-19T06:30:20.328Z,7.30
2019-03-19T06:32:48.931Z,6.95
2019-03-19T06:35:17.859Z,5.95
2019-03-19T06:37:46.474Z,5.50
2019-03-19T06:40:19.140Z,5.12
2019-03-19T06:42:47.725Z,5.80
2019-03-19T06:45:17.259Z,6.45
2019-03-19T06:47:45.836Z,6.35
2019-03-19T06:50:15.478Z,5.65
2019-03-19T06:52:44.400Z,6.17
2019-03-19T06:55:20.214Z,6.55
2019-03-19T06:57:49.752Z,6.80
2019-03-19T07:00:22.343Z,6.67
2019-03-19T07:02:51.434Z,8.63
2019-03-19T07:05:20.979Z,7.67
2019-03-19T07:07:49.688Z,8.00
2019-03-19T07:10:21.432Z,7.47
2019-03-19T07:12:50.095Z,6.90
2019-03-19T07:15:19.643Z,6.15
2019-03-19T07:17:49.263Z,6.35
2019-03-19T07:20:20.090Z,6.12
2019-03-19T07:22:48.833Z,5.67
2019-03-19T07:25:17.415Z,6.83
2019-03-19T07:27:46.072Z,6.83
2019-03-19T07:30:24.868Z,5.92
2019-03-19T07:32:53.483Z,6.70
2019-03-19T07:35:22.116Z,6.17
2019-03-19T07:37:50.775Z,7.15
2019-03-19T07:40:19.420Z,6.95
2019-03-19T07:42:48.087Z,7.30
2019-03-19T07:45:21.821Z,6.75
2019-03-19T07:47:50.399Z,7.30
2019-03-19T07:50:23.271Z,6.90
2019-03-19T07:52:57.576Z,7.35
2019-03-19T07:55:26.146Z,7.03
2019-03-19T07:57:54.724Z,7.95
2019-03-19T08:00:23.660Z,6.40
2019-03-19T08:02:53.402Z,6.92
2019-03-19T08:05:32.216Z,6.53
2019-03-19T08:07:52.369Z,7.00
2019-03-19T08:10:20.949Z,6.42
2019-03-19T08:12:49.574Z,7.35
2019-03-19T08:15:19.970Z,6.35
2019-03-19T08:17:48.686Z,6.65
2019-03-19T08:20:20.292Z,5.72
2019-03-19T08:22:48.870Z,6.50
2019-03-19T08:25:17.515Z,6.78
2019-03-19T08:27:46.158Z,6.55
2019-03-19T08:30:25.108Z,6.58
2019-03-19T08:32:53.883Z,6.87
2019-03-19T08:35:22.520Z,5.65
2019-03-19T08:37:51.137Z,5.95
2019-03-19T08:40:20.840Z,6.25
2019-03-19T08:42:49.392Z,5.60
2019-03-19T08:45:20.410Z,6.15
2019-03-19T08:47:48.989Z,5.60
2019-03-19T08:50:21.582Z,5.87
2019-03-19T08:52:50.609Z,6.22
2019-03-19T08:55:19.239Z,5.80
2019-03-19T08:57:47.739Z,5.25
2019-03-19T09:00:27.258Z,4.72
2019-03-19T09:03:01.776Z,5.20
2019-03-19T09:05:30.344Z,5.20
2019-03-19T09:07:58.936Z,5.03
2019-03-19T09:10:27.505Z,5.50
2019-03-19T09:12:56.133Z,5.40
2019-03-19T09:15:29.871Z,6.53
2019-03-19T09:17:58.423Z,5.80
2019-03-19T09:20:26.983Z,6.30
2019-03-19T09:23:07.424Z,6.22
2019-03-19T09:25:36.108Z,6.22
2019-03-19T09:28:04.915Z,6.12
2019-03-19T09:30:33.648Z,6.50
2019-03-19T09:33:02.255Z,6.20
2019-03-19T09:35:30.869Z,6.70
2019-03-19T09:37:59.443Z,6.40
2019-03-19T09:40:28.056Z,6.92
2019-03-19T09:42:56.635Z,6.87
2019-03-19T09:45:25.192Z,7.10
2019-03-19T09:47:53.821Z,6.72
2019-03-19T09:50:26.076Z,7.55
2019-03-19T09:52:54.667Z,7.45
2019-03-19T09:55:23.389Z,7.62
2019-03-19T09:57:51.971Z,6.67
2019-03-19T10:00:21.310Z,6.70
2019-03-19T10:02:49.949Z,7.70
2019-03-19T10:05:19.138Z,6.70
2019-03-19T10:07:47.835Z,6.70
2019-03-19T10:10:20.448Z,7.00
2019-03-19T10:12:49.002Z,6.62
2019-03-19T10:15:18.190Z,6.67
2019-03-19T10:17:46.764Z,7.00
2019-03-19T10:20:17.894Z,7.33
2019-03-19T10:22:46.939Z,7.42
2019-03-19T10:25:16.654Z,8.13
2019-03-19T10:27:45.274Z,8.40
2019-03-19T10:30:18.864Z,7.92
2019-03-19T10:32:47.957Z,8.05
2019-03-19T10:35:17.068Z,7.75
2019-03-19T10:37:45.711Z,8.28
2019-03-19T10:40:16.637Z,8.13
2019-03-19T10:42:45.237Z,7.25
2019-03-19T10:45:15.925Z,7.72
2019-03-19T10:47:44.655Z,7.37
2019-03-19T10:50:22.387Z,7.65
2019-03-19T10:52:51.010Z,7.72
2019-03-19T10:55:19.954Z,7.37
2019-03-19T10:57:48.518Z,7.33
2019-03-19T11:00:21.284Z,7.95
2019-03-19T11:02:50.095Z,8.25
2019-03-19T11:05:19.494Z,8.78
2019-03-19T11:07:48.255Z,7.40
2019-03-19T11:10:17.921Z,7.70
2019-03-19T11:12:46.708Z,8.50
2019-03-19T11:15:26.103Z,7.92
2019-03-19T11:17:54.778Z,8.73
2019-03-19T11:20:23.614Z,8.43
2019-03-19T11:22:52.225Z,8.53
2019-03-19T11:25:27.856Z,8.83
2019-03-19T11:27:56.529Z,9.30
2019-03-19T11:30:31.826Z,8.90
2019-03-19T11:33:00.515Z,8.03
2019-03-19T11:35:29.274Z,9.00
2019-03-19T11:37:57.913Z,7.72
2019-03-19T11:40:26.493Z,7.92
2019-03-19T11:42:55.176Z,8.03
2019-03-19T11:45:24.508Z,8.13
2019-03-19T11:47:53.122Z,8.15
2019-03-19T11:50:23.728Z,7.78
2019-03-19T11:52:52.546Z,8.45
2019-03-19T11:55:21.875Z,8.15
2019-03-19T11:57:50.812Z,7.47
2019-03-19T12:00:30.032Z,7.95
2019-03-19T12:02:58.962Z,7.80
2019-03-19T12:05:27.656Z,7.12
2019-03-19T12:07:56.306Z,7.62
2019-03-19T12:10:24.870Z,8.45
2019-03-19T12:12:53.587Z,7.50
2019-03-19T12:15:22.225Z,7.83
2019-03-19T12:17:50.809Z,7.58
2019-03-19T12:20:20.945Z,8.20
2019-03-19T12:22:49.637Z,7.78
2019-03-19T12:25:18.327Z,8.28
2019-03-19T12:27:47.070Z,8.13
2019-03-19T12:30:23.003Z,8.28
2019-03-19T12:32:51.261Z,8.60
2019-03-19T12:35:20.682Z,9.00
2019-03-19T12:37:49.320Z,8.93
2019-03-19T12:40:21.774Z,9.78
2019-03-19T12:45:19.411Z,9.60
2019-03-19T12:47:48.108Z,9.40
2019-03-19T12:50:20.713Z,9.18
2019-03-19T12:52:49.408Z,8.60
2019-03-19T12:55:18.031Z,9.58
2019-03-19T12:57:46.670Z,8.90
2019-03-19T13:00:34.108Z,9.80
2019-03-19T13:02:55.828Z,9.70
2019-03-19T13:05:24.395Z,9.45
2019-03-19T13:07:53.365Z,9.83
2019-03-19T13:10:22.722Z,10.40
2019-03-19T13:12:51.418Z,9.60
2019-03-19T13:15:20.635Z,9.38
2019-03-19T13:17:49.318Z,10.55
2019-03-19T13:20:18.927Z,9.35
2019-03-19T13:22:47.569Z,9.45
2019-03-19T13:25:17.824Z,8.28
2019-03-19T13:27:46.632Z,8.65
2019-03-19T13:30:17.903Z,8.90
2019-03-19T13:32:46.672Z,9.05
2019-03-19T13:35:15.449Z,8.63
2019-03-19T13:37:44.011Z,8.33
2019-03-19T13:40:17.339Z,8.98
2019-03-19T13:42:46.288Z,9.93
2019-03-19T13:45:21.008Z,10.58
2019-03-19T13:47:50.950Z,9.65
2019-03-19T13:50:20.555Z,9.65
2019-03-19T13:52:49.264Z,9.58
2019-03-19T13:55:20.191Z,10.10
2019-03-19T13:57:48.868Z,8.15
2019-03-19T14:00:19.306Z,9.30
2019-03-19T14:02:47.989Z,9.65
2019-03-19T14:05:17.297Z,9.35
2019-03-19T14:07:46.269Z,9.43
2019-03-19T14:10:19.912Z,9.35
2019-03-19T14:12:48.609Z,9.60
2019-03-19T14:15:18.723Z,8.73
2019-03-19T14:17:47.321Z,8.90
2019-03-19T14:20:16.757Z,9.93
2019-03-19T14:22:45.866Z,8.55
2019-03-19T14:25:15.459Z,10.00
2019-03-19T14:27:44.965Z,9.33
2019-03-19T14:30:20.438Z,10.50
2019-03-19T14:32:49.197Z,9.83
2019-03-19T14:35:17.833Z,9.88
2019-03-19T14:37:46.611Z,10.20
2019-03-19T14:40:18.962Z,9.23
2019-03-19T14:42:47.585Z,10.28
2019-03-19T14:45:17.434Z,7.85
2019-03-19T14:47:46.071Z,8.78
2019-03-19T14:50:22.488Z,8.75
2019-03-19T14:52:51.127Z,9.33
2019-03-19T14:55:19.947Z,11.65
2019-03-19T14:57:50.763Z,10.43
2019-03-19T15:00:19.956Z,11.60
2019-03-19T15:02:48.610Z,10.53
2019-03-19T15:05:17.410Z,11.38
2019-03-19T15:07:46.116Z,11.18
2019-03-19T15:10:22.051Z,10.95
2019-03-19T15:12:50.607Z,10.95
2019-03-19T15:15:21.284Z,11.97
2019-03-19T15:17:49.920Z,11.10
2019-03-19T15:20:20.294Z,11.88
2019-03-19T15:22:48.861Z,11.48
2019-03-19T15:25:17.582Z,11.08
2019-03-19T15:27:46.239Z,11.12
2019-03-19T15:30:21.104Z,11.45
2019-03-19T15:32:49.987Z,11.63
2019-03-19T15:35:18.649Z,11.78
2019-03-19T15:37:47.433Z,12.10
2019-03-19T15:40:17.078Z,12.68
2019-03-19T15:42:45.736Z,11.50
2019-03-19T15:45:20.047Z,12.15
2019-03-19T15:47:48.630Z,11.93
2019-03-19T15:50:17.285Z,12.35
2019-03-19T15:52:45.939Z,11.78
2019-03-19T15:55:15.102Z,12.60
2019-03-19T15:57:44.110Z,13.38
2019-03-19T16:00:17.509Z,12.53
2019-03-19T16:02:46.269Z,12.93
2019-03-19T16:05:15.248Z,12.93
2019-03-19T16:07:44.575Z,12.15
2019-03-19T16:10:16.203Z,11.80
2019-03-19T16:12:46.000Z,11.60
2019-03-19T16:15:22.098Z,10.13
2019-03-19T16:17:50.718Z,10.28
2019-03-19T16:20:21.211Z,10.18
2019-03-19T16:22:49.925Z,9.35
2019-03-19T16:25:18.681Z,9.53
2019-03-19T16:27:47.298Z,9.38
2019-03-19T16:30:19.555Z,10.75
2019-03-19T16:32:48.161Z,9.30
2019-03-19T16:35:16.826Z,9.88
2019-03-19T16:37:45.530Z,9.75
2019-03-19T16:40:20.952Z,10.98
2019-03-19T16:42:49.602Z,10.58
2019-03-19T16:45:18.753Z,10.48
2019-03-19T16:47:47.652Z,11.12
2019-03-19T16:50:17.599Z,10.58
2019-03-19T16:52:46.442Z,12.75
2019-03-19T16:55:16.052Z,10.98
2019-03-19T16:57:44.775Z,12.25
2019-03-19T17:00:21.517Z,10.90
2019-03-19T17:02:50.197Z,11.45
2019-03-19T17:05:18.839Z,11.50
2019-03-19T17:07:47.507Z,11.33
2019-03-19T17:10:18.780Z,11.25
2019-03-19T17:12:47.308Z,12.05
2019-03-19T17:15:18.868Z,12.47
2019-03-19T17:17:47.554Z,11.70
2019-03-19T17:20:19.532Z,12.28
2019-03-19T17:22:48.102Z,13.25
2019-03-19T17:25:21.962Z,12.50
2019-03-19T17:27:50.838Z,12.13
2019-03-19T17:30:30.880Z,12.95
2019-03-19T17:32:59.598Z,13.40
2019-03-19T17:35:28.228Z,12.88
2019-03-19T17:37:56.928Z,13.13
2019-03-19T17:40:25.639Z,12.03
2019-03-19T17:42:54.204Z,12.85
2019-03-19T17:45:22.780Z,13.28
2019-03-19T17:47:51.344Z,12.10
2019-03-19T17:50:25.895Z,12.45
2019-03-19T17:52:56.463Z,10.90
2019-03-19T17:55:26.060Z,10.75
2019-03-19T17:57:55.594Z,11.18
2019-03-19T18:00:32.031Z,11.93
2019-03-19T18:03:00.645Z,11.18
2019-03-19T18:05:29.259Z,12.80
2019-03-19T18:07:57.800Z,12.80
2019-03-19T18:10:26.491Z,12.85
2019-03-19T18:12:55.055Z,13.13
2019-03-19T18:15:24.520Z,13.60
2019-03-19T18:17:53.120Z,12.18
2019-03-19T18:20:21.697Z,14.05
2019-03-19T18:22:50.580Z,13.13
2019-03-19T18:25:19.926Z,13.68
2019-03-19T18:27:49.888Z,15.20
2019-03-19T18:30:23.041Z,14.45
2019-03-19T18:32:55.592Z,14.03
2019-03-19T18:35:24.636Z,15.08
2019-03-19T18:38:00.078Z,15.70
2019-03-19T18:40:28.714Z,15.60
2019-03-19T18:42:57.364Z,14.75
2019-03-19T18:45:25.956Z,14.43
2019-03-19T18:47:54.526Z,15.18
2019-03-19T18:50:23.565Z,16.12
2019-03-19T18:52:52.244Z,15.45
2019-03-19T18:55:20.909Z,15.10
2019-03-19T18:57:49.471Z,16.07
2019-03-19T19:00:21.207Z,16.12
2019-03-19T19:02:51.026Z,14.60
2019-03-19T19:05:23.388Z,15.35
2019-03-19T19:07:52.016Z,16.77
2019-03-19T19:10:21.664Z,16.17
2019-03-19T19:12:50.373Z,17.35
2019-03-19T19:15:25.350Z,17.12
2019-03-19T19:17:53.979Z,18.60
2019-03-19T19:20:22.621Z,19.82
2019-03-19T19:22:51.502Z,18.32
2019-03-19T19:25:21.683Z,18.62
2019-03-19T19:27:50.299Z,18.23
2019-03-19T19:30:21.008Z,18.20
2019-03-19T19:33:00.502Z,18.12
2019-03-19T19:35:20.074Z,18.12
2019-03-19T19:37:48.628Z,18.48
2019-03-19T19:40:18.358Z,19.92
2019-03-19T19:42:47.131Z,18.55
2019-03-19T19:45:16.649Z,19.90
2019-03-19T19:47:45.281Z,20.72
2019-03-19T19:50:21.114Z,20.57
2019-03-19T19:52:49.752Z,20.23
2019-03-19T19:55:18.463Z,20.17
2019-03-19T19:57:47.225Z,19.55
2019-03-19T20:00:21.064Z,21.82
2019-03-19T20:02:49.769Z,22.35
2019-03-19T20:05:18.377Z,20.75
2019-03-19T20:07:46.949Z,20.15
2019-03-19T20:10:23.331Z,20.23
2019-03-19T20:12:51.919Z,19.67
2019-03-19T20:15:20.502Z,20.00
2019-03-19T20:17:49.177Z,19.40
2019-03-19T20:20:23.240Z,19.42
2019-03-19T20:22:51.870Z,18.57
2019-03-19T20:25:20.498Z,18.75
2019-03-19T20:27:49.061Z,18.77
2019-03-19T20:30:21.714Z,19.32
2019-03-19T20:32:50.298Z,18.48
2019-03-19T20:35:19.014Z,16.82
2019-03-19T20:37:47.601Z,17.62
2019-03-19T20:40:17.712Z,19.80
2019-03-19T20:42:46.475Z,18.52
2019-03-19T20:45:23.943Z,18.60
2019-03-19T20:47:52.520Z,19.45
2019-03-19T20:50:27.994Z,19.92
2019-03-19T20:52:57.583Z,19.15
2019-03-19T20:55:27.568Z,20.30
2019-03-19T20:57:56.227Z,18.52
2019-03-19T21:00:25.812Z,18.85
2019-03-19T21:02:54.977Z,18.20
2019-03-19T21:05:23.558Z,19.27
2019-03-19T21:07:52.140Z,19.12
2019-03-19T21:10:22.959Z,20.10
2019-03-19T21:12:51.605Z,18.60
2019-03-19T21:15:26.140Z,18.87
2019-03-19T21:17:54.822Z,19.95
2019-03-19T21:20:23.547Z,20.60
2019-03-19T21:22:53.127Z,20.12
2019-03-19T21:25:21.897Z,19.55
2019-03-19T21:27:51.372Z,19.90
2019-03-19T21:30:21.176Z,18.82
2019-03-19T21:32:49.787Z,19.57
2019-03-19T21:35:25.438Z,20.30
2019-03-19T21:37:54.155Z,20.25
2019-03-19T21:40:23.171Z,20.15
2019-03-19T21:42:51.771Z,20.02
2019-03-19T21:45:23.582Z,20.32
2019-03-19T21:47:53.149Z,19.62
2019-03-19T21:50:23.188Z,22.07
2019-03-19T21:52:51.726Z,20.27
2019-03-19T21:55:20.365Z,20.40
2019-03-19T21:57:49.070Z,21.15
2019-03-19T22:00:22.204Z,21.82
2019-03-19T22:02:50.817Z,20.32
2019-03-19T22:05:19.483Z,21.93
2019-03-19T22:07:48.137Z,22.62
2019-03-19T22:10:21.195Z,20.72
2019-03-19T22:12:50.017Z,22.35
2019-03-19T22:15:20.814Z,21.65
2019-03-19T22:17:49.584Z,21.68
2019-03-19T22:20:18.414Z,21.50
2019-03-19T22:22:47.137Z,22.80
2019-03-19T22:25:16.472Z,22.65
2019-03-19T22:27:45.151Z,22.37
2019-03-19T22:30:17.994Z,21.82
2019-03-19T22:32:46.629Z,21.45
2019-03-19T22:35:15.412Z,21.37
2019-03-19T22:37:44.117Z,20.90
2019-03-19T22:40:16.534Z,19.32
2019-03-19T22:45:14.781Z,20.43
2019-03-19T22:47:43.357Z,20.65
2019-03-19T22:50:13.689Z,21.37
2019-03-19T22:52:43.659Z,21.25
2019-03-19T22:55:13.909Z,22.17
2019-03-19T22:57:42.744Z,22.65
2019-03-19T23:00:37.109Z,21.50
2019-03-19T23:03:07.605Z,21.45
2019-03-19T23:05:36.813Z,22.98
2019-03-19T23:08:05.625Z,22.00
2019-03-19T23:10:40.617Z,22.07
2019-03-19T23:13:11.713Z,24.90
2019-03-19T23:15:40.487Z,23.22
2019-03-19T23:18:10.101Z,23.07
2019-03-19T23:20:39.676Z,23.92
2019-03-19T23:23:08.249Z,24.05
2019-03-19T23:25:36.858Z,25.17
2019-03-19T23:28:05.584Z,23.90
2019-03-19T23:30:34.296Z,24.87
2019-03-19T23:33:02.907Z,24.92
2019-03-19T23:35:31.573Z,24.63
2019-03-19T23:38:00.132Z,25.60
2019-03-19T23:40:29.055Z,24.70
2019-03-19T23:42:57.637Z,24.92
2019-03-19T23:45:26.631Z,25.40
2019-03-19T23:47:55.304Z,24.30
2019-03-19T23:50:23.895Z,24.18
2019-03-19T23:52:52.568Z,24.43
2019-03-19T23:55:21.151Z,25.23
2019-03-19T23:57:50.033Z,24.85
